Time;durP1;ratioP1;P1;durP2;ratioP2;P2;SDS_P1;SDS_P2;PMS_P1;PMS_P2;Temp;Humidity;BMP_temperature;BMP_pressure;BME280_temperature;BME280_humidity;BME280_pressure;Samples;Min_cycle;Max_cycle;Signal;HPM_P1;HPM_P2
2022/05/27 00:01:21;;;;;;;6.90;2.90;;;;;;;14.12;74.16;99600.91;1712208;83;21035;-79
2022/05/27 00:03:49;;;;;;;5.28;2.83;;;;;;;14.09;76.09;99596.64;1711101;83;22104;-78
2022/05/27 00:06:16;;;;;;;8.55;3.22;;;;;;;14.09;76.04;99594.02;1716211;83;21595;-80
2022/05/27 00:08:43;;;;;;;6.92;2.95;;;;;;;14.08;75.85;99592.30;1719836;83;20995;-79
2022/05/27 00:11:09;;;;;;;5.55;2.77;;;;;;;14.08;77.81;99588.84;1720303;83;20960;-80
2022/05/27 00:13:37;;;;;;;6.45;3.20;;;;;;;14.08;76.00;99592.30;1712553;83;21344;-79
2022/05/27 00:16:04;;;;;;;5.17;3.00;;;;;;;14.07;76.64;99589.75;1711981;83;21129;-80
2022/05/27 00:18:31;;;;;;;6.10;3.00;;;;;;;14.06;77.12;99590.19;1722994;83;20992;-79
2022/05/27 00:20:58;;;;;;;5.78;2.98;;;;;;;14.06;76.86;99583.65;1717225;83;21018;-79
2022/05/27 00:23:26;;;;;;;8.80;2.92;;;;;;;14.02;77.26;99583.34;1718679;83;21552;-79
2022/05/27 00:25:52;;;;;;;5.00;2.72;;;;;;;14.05;77.48;99573.27;1703009;84;21015;-78
2022/05/27 00:28:19;;;;;;;6.58;2.98;;;;;;;14.04;76.48;99571.53;1710508;84;21528;-80
2022/05/27 00:30:46;;;;;;;7.70;3.12;;;;;;;14.07;76.91;99570.14;1706218;84;21035;-79
2022/05/27 00:33:12;;;;;;;6.28;3.20;;;;;;;14.05;77.33;99575.41;1710204;84;21079;-79
2022/05/27 00:35:39;;;;;;;7.40;2.87;;;;;;;14.04;78.45;99577.61;1708060;84;21060;-79
2022/05/27 00:38:08;;;;;;;5.08;2.80;;;;;;;14.01;76.79;99575.58;1708257;84;21059;-80
2022/05/27 00:40:39;;;;;;;5.65;2.85;;;;;;;13.97;76.41;99574.81;1707450;84;21015;-80
2022/05/27 00:43:07;;;;;;;4.58;2.40;;;;;;;13.95;76.84;99577.92;1699915;84;21062;-79
2022/05/27 00:45:37;;;;;;;5.22;2.65;;;;;;;13.90;77.57;99566.73;1691099;84;21050;-79
2022/05/27 00:48:09;;;;;;;7.05;2.87;;;;;;;13.87;77.15;99570.31;1707718;83;21072;-80
2022/05/27 00:50:40;;;;;;;5.83;2.35;;;;;;;13.81;77.81;99573.13;1709254;83;21011;-79
2022/05/27 00:53:10;;;;;;;4.92;2.20;;;;;;;13.77;77.32;99568.02;1703842;84;21020;-79
2022/05/27 00:55:47;;;;;;;4.70;2.50;;;;;;;13.73;77.08;99572.50;1710640;84;21006;-79
2022/05/27 00:58:19;;;;;;;6.72;2.85;;;;;;;13.68;76.94;99575.23;1700794;84;21081;-79
2022/05/27 01:00:47;;;;;;;5.42;2.30;;;;;;;13.66;78.03;99574.88;1689652;84;21028;-81
2022/05/27 01:03:16;;;;;;;6.00;3.10;;;;;;;13.59;79.32;99582.48;1705929;84;21047;-78
2022/05/27 01:05:44;;;;;;;8.23;2.58;;;;;;;13.53;78.48;99567.88;1707943;84;21055;-79
2022/05/27 01:08:15;;;;;;;7.75;2.85;;;;;;;13.54;78.74;99570.88;1695209;84;21160;-79
2022/05/27 01:11:03;;;;;;;6.47;2.70;;;;;;;13.45;79.72;99577.66;1701628;84;21004;-79
2022/05/27 01:14:04;;;;;;;5.87;2.62;;;;;;;13.44;79.65;99572.90;1701859;84;21551;-79
2022/05/27 01:17:06;;;;;;;4.22;2.52;;;;;;;13.43;79.39;99574.24;1700680;84;21076;-79
2022/05/27 01:23:24;;;;;;;6.30;3.05;;;;;;;13.36;80.50;99558.37;1707656;84;21014;-80
2022/05/27 01:26:21;;;;;;;4.65;2.47;;;;;;;13.28;80.12;99561.16;1711799;84;21040;-79
2022/05/27 01:28:59;;;;;;;6.35;2.87;;;;;;;13.24;79.14;99556.47;1709077;82;21052;-81
2022/05/27 01:31:40;;;;;;;10.13;2.85;;;;;;;13.21;78.71;99558.31;1713617;84;21052;-79
2022/05/27 01:34:39;;;;;;;7.08;3.00;;;;;;;13.19;80.35;99553.58;1711047;84;21087;-79
2022/05/27 01:37:23;;;;;;;6.95;3.42;;;;;;;13.16;80.00;99557.14;1711968;84;21682;-78
2022/05/27 01:40:21;;;;;;;7.60;2.77;;;;;;;13.10;78.68;99557.31;1694342;84;21052;-79
2022/05/27 01:43:01;;;;;;;6.58;2.60;;;;;;;13.03;80.65;99549.23;1689528;84;21068;-79
2022/05/27 01:46:08;;;;;;;9.20;2.80;;;;;;;13.01;82.52;99543.20;1682296;84;21021;-79
2022/05/27 01:48:52;;;;;;;4.33;2.47;;;;;;;12.97;79.53;99534.63;1710547;83;21528;-79
2022/05/27 01:51:36;;;;;;;3.90;2.70;;;;;;;12.93;79.22;99542.98;1706897;84;21492;-79
2022/05/27 01:54:26;;;;;;;6.87;2.80;;;;;;;12.88;80.59;99534.42;1708783;84;21519;-79
2022/05/27 01:56:58;;;;;;;5.62;2.75;;;;;;;12.86;80.45;99538.83;1711510;84;21039;-77
2022/05/27 01:59:40;;;;;;;8.40;2.60;;;;;;;12.85;81.71;99535.83;1709151;84;21024;-79
2022/05/27 02:02:15;;;;;;;8.55;3.17;;;;;;;12.86;79.41;99533.61;1707453;83;21554;-79
2022/05/27 02:05:13;;;;;;;4.58;2.52;;;;;;;12.85;82.43;99533.22;1709763;83;21005;-79
2022/05/27 02:07:45;;;;;;;7.40;3.37;;;;;;;12.87;83.16;99534.45;1703823;83;21047;-79
2022/05/27 02:10:34;;;;;;;6.53;3.15;;;;;;;12.86;82.03;99549.72;1708022;83;21506;-79
2022/05/27 02:13:10;;;;;;;6.37;2.80;;;;;;;12.85;83.42;99543.66;1704841;84;21491;-78
2022/05/27 02:15:42;;;;;;;5.97;2.75;;;;;;;12.84;82.50;99538.47;1710340;84;21110;-79
2022/05/27 02:18:41;;;;;;;7.17;3.08;;;;;;;12.79;82.96;99543.80;1711818;84;20965;-79
2022/05/27 02:21:24;;;;;;;7.08;3.42;;;;;;;12.77;83.37;99552.11;1690774;84;21059;-79
2022/05/27 02:24:01;;;;;;;7.22;2.80;;;;;;;12.76;82.27;99553.48;1704499;83;21059;-78
2022/05/27 02:26:36;;;;;;;4.85;2.87;;;;;;;12.74;83.07;99554.81;1706775;83;20981;-79
2022/05/27 02:29:08;;;;;;;6.30;3.20;;;;;;;12.74;83.98;99549.14;1705734;84;21507;-79
2022/05/27 02:31:38;;;;;;;7.53;2.98;;;;;;;12.74;82.71;99550.91;1707094;84;21043;-79
2022/05/27 02:37:12;;;;;;;6.15;2.72;;;;;;;12.74;82.24;99540.47;1706446;83;21050;-83
2022/05/27 02:39:39;;;;;;;11.33;3.00;;;;;;;12.70;82.97;99540.99;1710505;84;21012;-79
2022/05/27 02:42:34;;;;;;;8.73;3.02;;;;;;;12.68;83.00;99540.18;1709163;84;21531;-78
2022/05/27 02:45:12;;;;;;;7.67;3.50;;;;;;;12.67;82.67;99546.73;1711601;83;21036;-78
2022/05/27 02:47:56;;;;;;;6.37;3.10;;;;;;;12.62;82.99;99538.19;1706959;84;21514;-79
2022/05/27 02:50:52;;;;;;;7.50;3.52;;;;;;;12.59;83.74;99535.65;1711188;84;20993;-79
2022/05/27 02:53:27;;;;;;;7.00;2.95;;;;;;;12.57;83.14;99551.78;1707741;83;21500;-78
2022/05/27 02:56:18;;;;;;;11.22;3.20;;;;;;;12.54;83.02;99549.66;1692415;84;21020;-79
2022/05/27 02:58:44;;;;;;;12.28;4.00;;;;;;;12.53;82.38;99551.88;1706915;83;21016;-79
2022/05/27 03:01:11;;;;;;;7.70;3.60;;;;;;;12.52;83.66;99551.46;1704706;84;20977;-79
2022/05/27 03:03:38;;;;;;;6.60;3.12;;;;;;;12.51;85.04;99550.19;1705090;84;21001;-79
2022/05/27 03:06:18;;;;;;;6.45;3.17;;;;;;;12.50;84.91;99551.95;1710706;84;21012;-79
2022/05/27 03:09:09;;;;;;;10.55;3.72;;;;;;;12.50;82.58;99561.08;1702955;84;21099;-79
2022/05/27 03:11:52;;;;;;;8.65;3.87;;;;;;;12.51;83.86;99555.41;1702003;84;21048;-79
2022/05/27 03:14:42;;;;;;;;;;;;;;;12.52;83.74;99554.06;1696845;84;21539;-79
2022/05/27 03:17:52;;;;;;;7.75;3.75;;;;;;;12.49;84.79;99554.16;1711438;84;20162;-80
2022/05/27 03:20:54;;;;;;;6.80;3.55;;;;;;;12.52;84.71;99554.06;1703330;84;21040;-79
2022/05/27 03:23:32;;;;;;;6.55;3.45;;;;;;;12.53;84.74;99556.22;1709556;83;21544;-77
2022/05/27 03:26:10;;;;;;;8.53;4.00;;;;;;;12.56;85.26;99562.67;1705434;84;21015;-79
2022/05/27 03:29:15;;;;;;;7.00;3.70;;;;;;;12.57;85.92;99558.30;1704897;84;21070;-79
2022/05/27 03:32:15;;;;;;;6.87;3.83;;;;;;;12.64;84.96;99560.72;1686894;84;21040;-79
2022/05/27 03:34:53;;;;;;;6.25;3.52;;;;;;;12.69;85.03;99556.67;1711476;84;21042;-78
2022/05/27 03:37:30;;;;;;;11.48;3.83;;;;;;;12.73;84.19;99554.39;1711468;83;21008;-79
2022/05/27 03:40:11;;;;;;;8.68;4.10;;;;;;;12.75;84.66;99557.81;1708374;83;21054;-80
2022/05/27 03:42:40;;;;;;;10.10;4.17;;;;;;;12.77;83.73;99555.17;1704976;84;21606;-79
2022/05/27 03:45:12;;;;;;;14.83;4.35;;;;;;;12.85;83.24;99560.62;1707715;84;20961;-79
2022/05/27 03:47:41;;;;;;;10.63;3.85;;;;;;;12.91;83.37;99556.53;1704117;84;21035;-78
2022/05/27 03:50:13;;;;;;;7.37;3.35;;;;;;;12.96;83.95;99557.70;1709186;83;21010;-81
2022/05/27 03:52:45;;;;;;;8.30;3.65;;;;;;;13.00;84.31;99553.26;1711533;84;21087;-79
2022/05/27 03:55:15;;;;;;;11.28;3.77;;;;;;;13.05;83.87;99549.63;1709382;83;21518;-79
2022/05/27 03:57:43;;;;;;;10.10;3.70;;;;;;;13.11;83.93;99549.88;1711475;83;21032;-80
2022/05/27 04:00:12;;;;;;;11.30;3.80;;;;;;;13.20;83.53;99554.00;1710029;83;21483;-79
2022/05/27 04:02:39;;;;;;;7.62;3.87;;;;;;;13.29;83.24;99552.41;1700173;84;21012;-78
2022/05/27 04:05:09;;;;;;;12.45;3.67;;;;;;;13.34;84.05;99551.87;1711546;84;20984;-78
2022/05/27 04:07:36;;;;;;;7.17;3.75;;;;;;;13.41;83.12;99553.84;1705080;84;21016;-79
2022/05/27 04:10:04;;;;;;;8.43;3.47;;;;;;;13.51;83.26;99554.86;1712354;84;20992;-79
2022/05/27 04:12:30;;;;;;;8.05;3.55;;;;;;;13.51;83.60;99555.31;1705162;83;21547;-79
2022/05/27 04:14:57;;;;;;;9.10;3.40;;;;;;;13.58;83.36;99550.29;1702263;83;21119;-79
2022/05/27 04:17:32;;;;;;;7.62;3.67;;;;;;;13.68;82.76;99550.87;1707952;84;21000;-79
2022/05/27 04:20:10;;;;;;;10.18;3.50;;;;;;;13.76;83.16;99547.56;1711710;84;21040;-78
2022/05/27 04:22:38;;;;;;;8.63;3.10;;;;;;;13.85;82.35;99546.45;1708057;84;21028;-79
2022/05/27 04:25:07;;;;;;;5.65;3.27;;;;;;;13.96;82.14;99546.09;1703658;83;21020;-79
2022/05/27 04:27:34;;;;;;;7.03;3.52;;;;;;;14.03;82.07;99542.39;1708096;83;21495;-79
2022/05/27 04:30:01;;;;;;;9.00;3.65;;;;;;;14.06;82.05;99544.89;1703913;84;21016;-78
2022/05/27 04:32:28;;;;;;;10.80;4.15;;;;;;;14.15;81.63;99547.69;1707709;82;20993;-78
2022/05/27 04:34:56;;;;;;;7.87;3.47;;;;;;;14.17;81.16;99545.88;1711524;84;21048;-79
2022/05/27 04:37:24;;;;;;;6.78;3.60;;;;;;;14.28;80.62;99550.27;1709576;83;21094;-79
2022/05/27 04:39:51;;;;;;;6.12;3.37;;;;;;;14.27;80.55;99542.05;1709365;84;20992;-78
2022/05/27 04:42:19;;;;;;;12.45;4.20;;;;;;;14.25;80.67;99545.16;1710789;83;21626;-80
2022/05/27 04:44:45;;;;;;;13.98;4.87;;;;;;;14.30;80.67;99544.11;1704710;84;20995;-78
2022/05/27 04:47:12;;;;;;;9.15;4.30;;;;;;;14.35;80.74;99542.64;1711122;84;20996;-79
2022/05/27 04:49:51;;;;;;;6.50;3.60;;;;;;;14.35;80.78;99545.25;1706419;84;21034;-78
2022/05/27 04:52:22;;;;;;;6.78;3.87;;;;;;;14.43;80.53;99545.84;1711483;84;20961;-78
2022/05/27 04:54:50;;;;;;;13.58;3.83;;;;;;;14.45;80.41;99549.27;1704429;83;21023;-79
2022/05/27 04:57:24;;;;;;;11.78;4.50;;;;;;;14.43;80.34;99543.70;1711552;84;21512;-79
2022/05/27 04:59:51;;;;;;;10.38;4.17;;;;;;;14.44;79.89;99544.95;1709250;83;21508;-79
2022/05/27 05:02:24;;;;;;;8.88;4.47;;;;;;;14.46;79.67;99546.19;1695793;84;21140;-79
2022/05/27 05:04:52;;;;;;;7.62;3.52;;;;;;;14.46;79.48;99542.27;1709315;84;21493;-80
2022/05/27 05:07:22;;;;;;;9.03;3.47;;;;;;;14.46;79.42;99540.95;1711657;83;21032;-78
2022/05/27 05:09:50;;;;;;;11.28;3.60;;;;;;;14.51;78.80;99550.36;1705409;84;21018;-78
2022/05/27 05:12:22;;;;;;;9.25;3.40;;;;;;;14.56;78.33;99546.73;1700998;84;21470;-78
2022/05/27 05:14:50;;;;;;;11.00;5.05;;;;;;;14.51;78.72;99545.59;1705321;84;21087;-79
2022/05/27 05:17:17;;;;;;;6.90;3.40;;;;;;;14.55;78.65;99553.73;1705822;84;21028;-78
2022/05/27 05:19:45;;;;;;;6.20;3.17;;;;;;;14.57;78.46;99545.88;1710384;83;21062;-79
2022/05/27 05:22:13;;;;;;;5.78;2.95;;;;;;;14.62;78.37;99552.66;1691041;84;21024;-78
2022/05/27 05:24:39;;;;;;;7.50;3.22;;;;;;;14.64;77.96;99560.02;1706317;84;21051;-79
2022/05/27 05:27:06;;;;;;;8.45;3.42;;;;;;;14.69;77.77;99553.30;1710069;84;21499;-79
2022/05/27 05:29:33;;;;;;;5.78;3.33;;;;;;;14.78;77.11;99558.23;1710941;83;21017;-78
2022/05/27 05:31:59;;;;;;;9.40;3.98;;;;;;;14.78;76.93;99558.66;1708066;84;21576;-79
2022/05/27 05:34:26;;;;;;;9.48;3.50;;;;;;;14.84;76.66;99546.66;1710863;84;21016;-79
2022/05/27 05:36:54;;;;;;;6.33;3.05;;;;;;;14.85;76.50;99547.08;1708893;83;21048;-79
2022/05/27 05:39:21;;;;;;;4.70;2.65;;;;;;;14.87;76.30;99552.64;1711479;83;20980;-80
2022/05/27 05:41:58;;;;;;;8.05;3.58;;;;;;;14.84;76.37;99547.97;1707098;84;20997;-80
2022/05/27 05:44:26;;;;;;;7.15;3.00;;;;;;;14.88;76.46;99552.18;1691060;84;21568;-79
2022/05/27 05:46:53;;;;;;;8.20;2.92;;;;;;;14.90;76.50;99546.01;1696592;83;21081;-81
2022/05/27 05:49:20;;;;;;;18.90;3.58;;;;;;;14.97;76.27;99547.94;1696109;84;21069;-79
2022/05/27 05:51:47;;;;;;;9.60;2.90;;;;;;;14.98;76.13;99531.77;1688214;84;20992;-78
2022/05/27 05:54:13;;;;;;;10.55;2.80;;;;;;;15.13;76.09;99543.00;1698759;84;21540;-78
2022/05/27 05:56:40;;;;;;;6.55;3.10;;;;;;;15.21;75.70;99544.88;1708966;82;21114;-78
2022/05/27 05:59:07;;;;;;;7.37;2.90;;;;;;;15.30;75.51;99539.31;1691322;84;21561;-79
2022/05/27 06:01:33;;;;;;;6.90;2.90;;;;;;;15.46;74.93;99534.34;1692779;84;21040;-77
2022/05/27 06:04:00;;;;;;;7.10;2.83;;;;;;;15.49;74.68;99535.52;1702371;84;21007;-79
2022/05/27 06:06:27;;;;;;;9.53;2.80;;;;;;;15.63;74.40;99542.02;1708276;83;21068;-79
2022/05/27 06:08:53;;;;;;;8.40;3.10;;;;;;;15.73;74.01;99549.09;1708179;84;21023;-79
2022/05/27 06:11:21;;;;;;;8.78;2.90;;;;;;;15.85;73.57;99544.21;1708080;84;21020;-79
2022/05/27 06:13:47;;;;;;;7.17;2.80;;;;;;;15.97;73.25;99536.31;1708120;84;20973;-79
2022/05/27 06:16:14;;;;;;;7.72;3.10;;;;;;;16.02;72.96;99542.70;1709632;84;22523;-79
2022/05/27 06:18:41;;;;;;;5.00;2.92;;;;;;;16.14;72.67;99542.67;1706031;83;20978;-79
2022/05/27 06:21:07;;;;;;;8.85;3.10;;;;;;;16.26;72.39;99543.47;1708648;83;21126;-79
2022/05/27 06:23:34;;;;;;;7.95;3.90;;;;;;;16.32;72.14;99531.88;1701444;84;21505;-78
2022/05/27 06:26:06;;;;;;;7.22;3.27;;;;;;;16.45;71.81;99533.92;1705877;84;21068;-79
2022/05/27 06:34:23;;;;;;;6.37;3.50;;;;;;;16.86;69.90;99527.36;1707170;84;21279;-78
2022/05/27 06:37:02;;;;;;;7.37;3.12;;;;;;;17.03;69.35;99533.63;1709601;84;21008;-80
2022/05/27 06:39:32;;;;;;;8.68;3.40;;;;;;;17.05;69.21;99533.10;1707707;83;21052;-79
2022/05/27 06:41:59;;;;;;;9.35;3.70;;;;;;;17.17;69.40;99526.45;1698420;83;20972;-81
2022/05/27 06:44:28;;;;;;;7.65;3.37;;;;;;;17.33;69.35;99522.66;1704999;84;21038;-79
2022/05/27 06:46:56;;;;;;;14.23;3.20;;;;;;;17.49;68.91;99520.58;1702844;84;21079;-79
2022/05/27 06:49:23;;;;;;;9.90;3.50;;;;;;;17.65;68.58;99520.70;1708555;84;21576;-79
2022/05/27 06:51:50;;;;;;;7.90;3.45;;;;;;;17.72;67.77;99519.09;1706679;84;21047;-78
2022/05/27 06:54:19;;;;;;;6.72;3.15;;;;;;;17.89;68.26;99517.86;1709622;84;21019;-78
2022/05/27 06:56:52;;;;;;;7.22;2.58;;;;;;;18.07;67.72;99503.80;1704106;83;21066;-77
2022/05/27 06:59:16;;;;;;;6.97;2.52;;;;;;;18.30;66.79;99508.37;1708343;84;21000;-80
2022/05/27 07:01:44;;;;;;;7.62;2.72;;;;;;;18.43;66.15;99502.88;1702860;84;21439;-80
2022/05/27 07:04:11;;;;;;;4.55;2.37;;;;;;;18.58;64.10;99507.84;1705955;84;21063;-80
2022/05/27 07:06:43;;;;;;;8.13;2.50;;;;;;;18.66;64.37;99493.81;1698319;84;20996;-80
2022/05/27 07:09:16;;;;;;;5.83;2.47;;;;;;;18.68;62.56;99498.97;1707299;83;21651;-78
2022/05/27 07:11:45;;;;;;;4.95;3.30;;;;;;;18.76;63.98;99493.31;1706362;84;21000;-78
2022/05/27 07:14:13;;;;;;;6.35;3.30;;;;;;;18.91;63.76;99493.02;1707849;84;21096;-77
2022/05/27 07:16:42;;;;;;;6.80;2.50;;;;;;;19.00;63.45;99491.19;1704457;84;20996;-79
2022/05/27 07:19:08;;;;;;;8.13;2.37;;;;;;;19.03;62.49;99487.92;1701484;84;21582;-79
2022/05/27 07:21:43;;;;;;;8.95;2.35;;;;;;;19.09;62.86;99488.06;1700991;84;20996;-78
2022/05/27 07:24:14;;;;;;;6.42;2.45;;;;;;;19.19;62.70;99483.16;1694127;84;21032;-78
2022/05/27 07:26:42;;;;;;;8.05;2.67;;;;;;;19.30;62.76;99487.83;1691944;83;20980;-78
2022/05/27 07:29:09;;;;;;;8.28;2.70;;;;;;;19.41;61.47;99486.30;1704020;84;21028;-79
2022/05/27 07:31:39;;;;;;;7.58;2.70;;;;;;;19.56;62.44;99486.41;1726907;83;21048;-79
2022/05/27 07:34:05;;;;;;;7.33;2.40;;;;;;;19.72;62.18;99483.31;1716439;83;21020;-78
2022/05/27 07:36:32;;;;;;;6.17;2.47;;;;;;;19.92;61.73;99473.42;1727596;83;20983;-80
2022/05/27 07:38:59;;;;;;;4.58;2.50;;;;;;;20.11;61.65;99469.23;1727725;83;21036;-80
2022/05/27 07:41:27;;;;;;;8.03;2.20;;;;;;;20.27;59.51;99477.94;1727487;82;21026;-79
2022/05/27 07:43:55;;;;;;;4.80;2.10;;;;;;;20.40;59.83;99471.00;1723895;82;20993;-80
2022/05/27 07:46:23;;;;;;;9.55;2.85;;;;;;;20.56;58.39;99465.64;1721576;83;21065;-79
2022/05/27 07:48:50;;;;;;;4.62;2.55;;;;;;;20.70;58.33;99469.28;1727694;83;21001;-79
2022/05/27 07:51:17;;;;;;;10.05;2.42;;;;;;;20.83;57.97;99468.44;1727943;83;21042;-80
2022/05/27 07:53:44;;;;;;;9.08;2.70;;;;;;;20.93;56.96;99470.05;1720428;83;20973;-79
2022/05/27 07:56:11;;;;;;;5.40;2.35;;;;;;;21.11;57.64;99460.56;1727819;82;21023;-79
2022/05/27 07:58:38;;;;;;;13.45;3.00;;;;;;;21.22;57.06;99452.33;1725746;83;21456;-79
2022/05/27 08:01:07;;;;;;;3.60;2.20;;;;;;;21.31;56.75;99461.95;1727260;82;21012;-79
2022/05/27 08:03:34;;;;;;;3.70;2.08;;;;;;;21.38;56.15;99454.01;1725700;83;21010;-79
2022/05/27 08:06:01;;;;;;;6.55;2.30;;;;;;;21.42;55.97;99452.37;1714139;83;22179;-79
2022/05/27 08:08:32;;;;;;;4.55;2.10;;;;;;;21.49;55.37;99451.56;1695595;84;21034;-78
2022/05/27 08:10:57;;;;;;;6.10;2.55;;;;;;;21.63;55.30;99448.03;1701433;84;20991;-79
2022/05/27 08:13:26;;;;;;;6.45;2.37;;;;;;;21.77;55.11;99445.31;1724474;83;21086;-79
2022/05/27 08:15:54;;;;;;;7.85;2.77;;;;;;;21.81;54.07;99449.94;1725769;82;20990;-79
2022/05/27 08:18:21;;;;;;;5.08;2.12;;;;;;;21.94;55.20;99440.21;1714270;83;21078;-79
2022/05/27 08:20:48;;;;;;;6.62;2.20;;;;;;;22.17;53.87;99445.30;1715774;83;21748;-79
2022/05/27 08:23:15;;;;;;;5.72;2.10;;;;;;;22.31;54.49;99436.94;1713559;83;21058;-78
2022/05/27 08:25:42;;;;;;;6.35;2.05;;;;;;;22.55;54.25;99441.86;1709720;83;21901;-79
2022/05/27 08:28:09;;;;;;;4.37;2.12;;;;;;;22.73;52.85;99440.22;1719633;83;21072;-79
2022/05/27 08:30:38;;;;;;;2.92;1.70;;;;;;;22.84;53.21;99433.21;1719067;83;21017;-79
2022/05/27 08:33:05;;;;;;;4.75;2.02;;;;;;;22.97;51.25;99422.57;1693896;83;21073;-80
2022/05/27 08:38:27;;;;;;;3.25;1.77;;;;;;;23.03;49.41;99431.93;1710259;84;21032;-80
2022/05/27 08:41:25;;;;;;;4.92;1.85;;;;;;;23.04;49.65;99432.31;1703969;84;21026;-79
2022/05/27 08:44:15;;;;;;;6.12;1.87;;;;;;;23.03;48.25;99431.44;1687177;84;21070;-79
2022/05/27 08:47:15;;;;;;;4.37;1.90;;;;;;;23.12;48.49;99431.28;1708925;84;21064;-78
2022/05/27 08:49:48;;;;;;;6.17;2.00;;;;;;;23.16;48.57;99423.47;1696008;83;21160;-79
2022/05/27 08:52:33;;;;;;;7.42;2.10;;;;;;;23.27;47.28;99419.19;1707652;84;21499;-80
2022/05/27 08:55:04;;;;;;;5.47;2.17;;;;;;;23.32;47.65;99419.23;1700099;84;21551;-79
2022/05/27 09:00:24;;;;;;;3.83;1.80;;;;;;;23.36;46.39;99420.70;1709162;84;21004;-80
2022/05/27 09:03:05;;;;;;;5.67;1.92;;;;;;;23.32;46.58;99408.62;1702663;83;20988;-80
2022/05/27 09:05:43;;;;;;;13.90;2.30;;;;;;;23.40;46.87;99416.86;1705638;84;20998;-79
2022/05/27 09:08:23;;;;;;;3.30;1.65;;;;;;;23.36;46.92;99413.23;1705497;84;21451;-79
2022/05/27 09:11:17;;;;;;;5.70;1.87;;;;;;;23.48;46.17;99416.30;1710118;83;21000;-79
2022/05/27 09:14:14;;;;;;;6.10;2.10;;;;;;;23.61;45.76;99412.25;1697115;84;21044;-79
2022/05/27 09:17:05;;;;;;;4.75;1.82;;;;;;;23.78;45.37;99402.59;1690862;84;21536;-79
2022/05/27 09:19:54;;;;;;;4.85;2.00;;;;;;;23.81;45.06;99402.83;1704234;84;21518;-79
2022/05/27 09:22:54;;;;;;;5.47;1.62;;;;;;;23.99;44.18;99408.09;1704192;84;21027;-79
2022/05/27 09:25:55;;;;;;;3.72;1.70;;;;;;;24.14;44.15;99402.58;1704897;83;21498;-79
2022/05/27 09:28:45;;;;;;;7.10;1.82;;;;;;;24.28;44.38;99403.69;1712399;83;21519;-78
2022/05/27 09:31:16;;;;;;;8.20;2.10;;;;;;;24.51;43.22;99410.38;1712845;83;21357;-78
2022/05/27 09:33:44;;;;;;;5.50;1.90;;;;;;;24.62;43.03;99391.78;1714901;83;21091;-78
2022/05/27 09:36:22;;;;;;;4.33;2.05;;;;;;;24.67;43.05;99390.08;1714400;83;21567;-79
2022/05/27 09:38:56;;;;;;;6.40;1.80;;;;;;;24.80;43.44;99386.33;1708086;83;21062;-80
2022/05/27 09:41:51;;;;;;;3.42;1.70;;;;;;;24.98;42.89;99379.19;1715199;83;21032;-79
2022/05/27 09:44:26;;;;;;;5.22;1.60;;;;;;;24.92;41.18;99383.67;1697934;83;21490;-78
2022/05/27 09:46:53;;;;;;;3.00;1.30;;;;;;;24.98;41.40;99378.69;1676110;83;21080;-79
2022/05/27 09:49:20;;;;;;;4.35;1.52;;;;;;;25.04;40.88;99369.37;1708614;82;21543;-79
2022/05/27 09:51:47;;;;;;;7.62;1.75;;;;;;;25.07;41.22;99362.95;1699351;83;21019;-79
2022/05/27 09:54:35;;;;;;;2.30;1.30;;;;;;;25.06;41.03;99365.27;1707227;83;21543;-79
2022/05/27 09:57:22;;;;;;;3.90;1.60;;;;;;;25.14;41.29;99365.00;1717756;82;21130;-79
2022/05/27 09:59:53;;;;;;;4.05;1.37;;;;;;;25.15;40.37;99377.34;1710468;83;20991;-79
2022/05/27 10:02:34;;;;;;;4.28;1.50;;;;;;;25.13;40.10;99360.66;1693053;83;21547;-79
2022/05/27 10:05:06;;;;;;;7.03;1.70;;;;;;;25.06;40.58;99358.13;1701523;83;21113;-78
2022/05/27 10:07:48;;;;;;;8.35;1.60;;;;;;;25.05;40.57;99358.25;1714008;83;21004;-79
2022/05/27 10:10:23;;;;;;;11.28;2.27;;;;;;;25.03;40.38;99358.39;1712807;83;21015;-79
2022/05/27 10:12:50;;;;;;;4.83;1.57;;;;;;;25.02;40.60;99348.70;1715321;83;21004;-79
2022/05/27 10:15:36;;;;;;;4.65;1.42;;;;;;;25.10;40.40;99345.43;1711127;83;21038;-78
2022/05/27 10:18:25;;;;;;;3.02;1.50;;;;;;;25.24;40.01;99348.33;1716274;83;20945;-79
2022/05/27 10:21:03;;;;;;;8.03;1.90;;;;;;;25.37;39.28;99339.70;1710164;83;22060;-79
2022/05/27 10:23:40;;;;;;;2.30;1.40;;;;;;;25.50;38.81;99343.50;1694915;83;21035;-79
2022/05/27 10:26:29;;;;;;;3.50;1.22;;;;;;;25.46;38.50;99337.59;1699880;83;21056;-79
2022/05/27 10:29:12;;;;;;;2.45;1.52;;;;;;;25.47;38.24;99337.13;1707460;83;20992;-79
2022/05/27 10:31:53;;;;;;;3.42;1.47;;;;;;;25.51;38.42;99338.06;1703594;83;21072;-79
2022/05/27 10:34:42;;;;;;;3.55;1.20;;;;;;;25.47;37.84;99335.30;1711840;84;21083;-80
2022/05/27 10:37:28;;;;;;;3.42;1.40;;;;;;;25.51;38.64;99334.56;1706332;84;21039;-79
2022/05/27 10:40:20;;;;;;;5.65;1.30;;;;;;;25.36;38.65;99308.72;1710485;84;21076;-78
2022/05/27 10:43:01;;;;;;;5.67;1.60;;;;;;;25.36;38.13;99314.05;1701603;84;21048;-79
2022/05/27 10:45:44;;;;;;;3.90;1.47;;;;;;;25.53;38.81;99304.67;1711608;84;21324;-78
2022/05/27 10:48:33;;;;;;;2.92;1.37;;;;;;;25.70;38.58;99307.22;1706385;84;21075;-80
2022/05/27 10:51:38;;;;;;;4.95;2.10;;;;;;;25.81;36.28;99308.50;1710351;83;21570;-79
2022/05/27 10:54:39;;;;;;;2.05;1.27;;;;;;;26.00;37.40;99298.45;1700858;84;20995;-79
2022/05/27 11:03:32;;;;;;;5.37;1.22;;;;;;;26.17;35.66;99285.02;1722159;83;20995;-80
2022/05/27 11:06:07;;;;;;;2.62;1.30;;;;;;;26.10;35.55;99281.20;1709452;83;20988;-78
2022/05/27 11:08:52;;;;;;;2.17;1.40;;;;;;;26.11;34.94;99291.73;1699008;82;21035;-79
2022/05/27 11:11:39;;;;;;;3.98;1.40;;;;;;;26.17;36.13;99287.69;1716388;83;21008;-78
2022/05/27 11:17:47;;;;;;;3.37;1.27;;;;;;;26.28;35.62;99274.75;1713553;83;21507;-80
2022/05/27 11:21:07;;;;;;;3.20;1.45;;;;;;;26.46;35.19;99270.48;1647638;86;21602;-80
2022/05/27 11:23:43;;;;;;;3.83;1.45;;;;;;;26.41;35.30;99274.03;1696026;83;21031;-79
2022/05/27 11:26:30;;;;;;;6.78;1.30;;;;;;;26.55;35.29;99260.32;1696169;83;21015;-80
2022/05/27 11:29:18;;;;;;;3.92;1.60;;;;;;;26.85;34.78;99259.92;1710448;84;21535;-79
2022/05/27 11:32:11;;;;;;;6.72;1.50;;;;;;;27.02;34.83;99254.40;1702027;83;21032;-79
2022/05/27 11:34:44;;;;;;;3.05;1.20;;;;;;;27.23;33.68;99253.41;1707422;83;21054;-79
2022/05/27 11:37:51;;;;;;;6.87;1.70;;;;;;;27.24;34.01;99255.97;1704241;83;21068;-80
2022/05/27 11:40:48;;;;;;;1.90;1.10;;;;;;;27.27;32.72;99254.84;1699369;83;20994;-80
2022/05/27 11:43:45;;;;;;;3.37;1.22;;;;;;;27.22;33.73;99248.56;1662376;83;21650;-80
2022/05/27 11:46:35;;;;;;;5.00;1.30;;;;;;;27.11;33.58;99246.87;1711019;83;21047;-79
2022/05/27 11:49:16;;;;;;;4.05;1.20;;;;;;;27.03;33.62;99233.39;1686970;84;21101;-79
2022/05/27 11:52:15;;;;;;;4.65;1.22;;;;;;;26.91;33.69;99239.35;1702304;83;21067;-79
2022/05/27 11:55:24;;;;;;;4.10;1.42;;;;;;;27.01;34.13;99242.03;1697872;83;21063;-80
2022/05/27 11:58:19;;;;;;;3.50;1.35;;;;;;;27.14;33.55;99233.26;1689932;84;21003;-80
2022/05/27 12:00:51;;;;;;;3.62;1.47;;;;;;;27.32;33.06;99222.73;1711302;83;21538;-79
2022/05/27 12:03:44;;;;;;;3.08;1.40;;;;;;;27.66;33.14;99223.59;1704937;84;21055;-80
2022/05/27 12:06:18;;;;;;;4.80;1.82;;;;;;;27.83;32.34;99220.63;1708220;83;21046;-80
2022/05/27 12:09:08;;;;;;;4.00;1.50;;;;;;;27.74;32.47;99210.84;1711483;83;20984;-80
2022/05/27 12:11:50;;;;;;;4.28;1.40;;;;;;;27.89;31.77;99208.56;1711014;83;21008;-80
2022/05/27 12:14:46;;;;;;;4.35;1.40;;;;;;;28.28;31.71;99197.20;1716144;83;21024;-79
2022/05/27 12:17:24;;;;;;;2.85;1.02;;;;;;;28.34;31.76;99199.27;1712446;83;21542;-79
2022/05/27 12:19:58;;;;;;;4.87;1.22;;;;;;;28.56;31.02;99195.86;1713546;83;21012;-80
2022/05/27 12:22:32;;;;;;;5.47;2.05;;;;;;;28.44;31.15;99187.69;1709399;83;21016;-80
2022/05/27 12:25:15;;;;;;;3.75;1.52;;;;;;;28.10;31.01;99185.63;1702578;83;21074;-80
2022/05/27 12:27:43;;;;;;;3.65;1.37;;;;;;;27.85;31.88;99179.09;1713391;83;21051;-79
2022/05/27 12:30:14;;;;;;;2.87;1.37;;;;;;;27.51;31.87;99171.12;1704096;83;20999;-78
2022/05/27 12:32:44;;;;;;;5.40;1.50;;;;;;;27.41;32.40;99176.98;1711142;83;21126;-82
2022/05/27 12:35:35;;;;;;;4.12;1.67;;;;;;;27.80;32.46;99170.70;1704504;83;21079;-80
2022/05/27 12:38:15;;;;;;;3.85;2.10;;;;;;;28.21;31.48;99172.55;1705805;83;21059;-79
2022/05/27 12:41:07;;;;;;;6.92;2.67;;;;;;;28.85;31.03;99156.85;1718312;83;21015;-80